Portada
METAR-TAF:

METAR-TAF

Aeroports :

Balkhash, Kazakhstan

latitud: 46-53-38N, longitud: 075-00-19E, altitud: 440 m

Observació

L'informe es va fer fa 20 minuts, a les 08:00 UTC
Vent 2 kt amb direcció variable
Temperatura 1°C
Humitat 64%
Pressió 1035 hPa
Visibilitat 10 km o més
Escasses núvols a una alçada de 2000 ft

METAR: UAAH 120800Z VRB01MPS 9999 FEW020 01/M05 Q1035 NOSIG RMK QFE738/0985

Hora: 14:20 (08:20 UTC)

Pronòstic

L'informe es va fer fa 3 hores i 19 minuts, a les 05:01 UTC
Pronòstic vàlid del 12 a les 06 UTC al 12 a les 15 UTC
Vent 6 kt del Est/Sud-Est
Visibilitat: 6000 m
Núvols disperses a una alçada de 1100 ft
Cel ennuvolat a una alçada de 2000 ft

TAF: UAAH 120501Z 1206/1215 12003MPS 6000 SCT011 BKN020

Observacions i pronòstics meteorològics de més de 4000 aeroports (METAR i TAF).

Les estacions disponibles són els punts grocs i vermells al mapa.

Posi el ratolí al punt desitjat per veure el nom de l'estació.

Feu clic per veure les observacions i els pronòstics meteorològics.

Per canviar el mapa: feu clic els botons verds amb una creu de color negre per apropar; al botó verd amb un guió per allunyar la imatge; o en les fletxes verdes per a mapes adjacents.


METAR-TAF: